createdAt,value
2022-08-03T00:00:33.920Z,41.59
2022-08-03T00:03:01.842Z,41.46
2022-08-03T00:05:29.753Z,41.64
2022-08-03T00:07:57.625Z,41.97
2022-08-03T00:10:27.370Z,42.21
2022-08-03T00:12:55.442Z,41.63
2022-08-03T00:18:08.507Z,42.15
2022-08-03T00:20:38.519Z,42.03
2022-08-03T00:23:14.224Z,43.54
2022-08-03T00:25:47.975Z,42.99
2022-08-03T00:28:18.098Z,42.89
2022-08-03T00:31:09.516Z,43.12
2022-08-03T00:33:58.281Z,43.64
2022-08-03T00:36:31.024Z,42.57
2022-08-03T00:39:02.300Z,42.61
2022-08-03T00:41:37.527Z,43.32
2022-08-03T00:44:12.568Z,42.58
2022-08-03T00:46:50.563Z,42.81
2022-08-03T00:49:41.137Z,44.77
2022-08-03T00:52:17.365Z,44.43
2022-08-03T00:55:01.992Z,43.01
2022-08-03T00:57:36.810Z,42.84
2022-08-03T01:00:13.657Z,42.97
2022-08-03T01:02:46.139Z,42.58
2022-08-03T01:05:17.058Z,42.87
2022-08-03T01:08:08.342Z,43.79
2022-08-03T01:10:44.551Z,43.73
2022-08-03T01:14:04.776Z,44.77
2022-08-03T01:17:21.465Z,44.77
2022-08-03T01:20:04.715Z,44.36
2022-08-03T01:23:28.805Z,44.45
2022-08-03T01:26:14.995Z,44.44
2022-08-03T01:32:58.936Z,43.86
2022-08-03T01:35:30.184Z,44.67
2022-08-03T01:46:01.596Z,46.39
2022-08-03T01:48:37.974Z,47.23
2022-08-03T01:51:10.435Z,45.66
2022-08-03T01:53:43.661Z,45.48
2022-08-03T01:56:16.576Z,45.20
2022-08-03T01:58:48.412Z,45.22
2022-08-03T02:01:22.898Z,45.30
2022-08-03T02:04:00.652Z,45.66
2022-08-03T02:07:02.189Z,46.90
2022-08-03T02:09:27.206Z,44.67
2022-08-03T02:12:02.171Z,44.90
2022-08-03T02:14:41.117Z,45.30
2022-08-03T02:17:12.357Z,44.85
2022-08-03T02:19:53.115Z,45.07
2022-08-03T02:22:25.068Z,44.85
2022-08-03T02:24:55.208Z,44.88
2022-08-03T02:27:30.843Z,45.00
2022-08-03T02:30:07.001Z,45.39
2022-08-03T02:32:37.852Z,44.91
2022-08-03T02:35:11.171Z,44.71
2022-08-03T02:37:45.027Z,45.19
2022-08-03T02:40:20.258Z,44.50
2022-08-03T02:42:50.477Z,44.16
2022-08-03T02:45:21.037Z,44.31
2022-08-03T02:47:53.972Z,44.20
2022-08-03T02:50:25.569Z,44.45
2022-08-03T02:52:54.511Z,44.21
2022-08-03T02:55:24.168Z,44.71
2022-08-03T02:57:53.859Z,44.80
2022-08-03T03:00:28.122Z,44.43
2022-08-03T03:02:59.581Z,44.84
2022-08-03T03:05:54.626Z,44.83
2022-08-03T03:08:26.765Z,44.71
2022-08-03T03:10:58.134Z,44.41
2022-08-03T03:13:28.012Z,44.39
2022-08-03T03:15:57.724Z,44.44
2022-08-03T03:18:26.672Z,44.68
2022-08-03T03:20:57.620Z,44.76
2022-08-03T03:23:27.899Z,44.56
2022-08-03T03:25:58.583Z,44.46
2022-08-03T03:28:26.988Z,44.46
2022-08-03T03:30:55.118Z,44.59
2022-08-03T03:33:23.352Z,44.40
2022-08-03T03:35:52.922Z,44.43
2022-08-03T03:38:22.330Z,44.80
2022-08-03T03:40:50.442Z,44.73
2022-08-03T03:43:18.864Z,44.76
2022-08-03T03:45:48.615Z,44.69
2022-08-03T03:48:16.876Z,45.05
2022-08-03T03:50:45.173Z,44.96
2022-08-03T03:53:14.743Z,45.60
2022-08-03T03:55:57.826Z,45.78
2022-08-03T03:58:30.734Z,45.38
2022-08-03T04:00:58.897Z,45.46
2022-08-03T04:03:26.914Z,45.24
2022-08-03T04:06:12.497Z,45.29
2022-08-03T04:08:59.332Z,45.73
2022-08-03T04:11:33.306Z,46.04
2022-08-03T04:14:07.358Z,46.14
2022-08-03T04:16:43.149Z,45.66
2022-08-03T04:19:17.474Z,45.62
2022-08-03T04:21:51.876Z,45.55
2022-08-03T04:24:21.751Z,45.40
2022-08-03T04:26:58.471Z,46.32
2022-08-03T04:29:27.727Z,45.98
2022-08-03T04:31:58.706Z,45.61
2022-08-03T04:34:26.831Z,46.11
2022-08-03T04:36:59.458Z,47.50
2022-08-03T04:39:31.221Z,46.19
2022-08-03T04:42:08.752Z,47.13
2022-08-03T04:44:39.175Z,45.98
2022-08-03T04:47:07.410Z,45.60
2022-08-03T04:49:37.712Z,46.08
2022-08-03T04:52:06.528Z,45.72
2022-08-03T04:54:40.776Z,46.27
2022-08-03T04:57:11.109Z,45.40
2022-08-03T04:59:58.234Z,45.39
2022-08-03T05:02:29.849Z,45.34
2022-08-03T05:04:57.768Z,45.63
2022-08-03T05:07:25.757Z,45.08
2022-08-03T05:09:57.623Z,46.00
2022-08-03T05:12:33.056Z,45.67
2022-08-03T05:17:29.409Z,45.45
2022-08-03T05:19:57.568Z,45.63
2022-08-03T05:22:25.467Z,45.13
2022-08-03T05:24:53.775Z,45.13
2022-08-03T05:27:21.743Z,45.11
2022-08-03T05:29:52.328Z,45.17
2022-08-03T05:32:20.656Z,44.80
2022-08-03T05:34:49.949Z,45.11
2022-08-03T05:37:17.819Z,44.81
2022-08-03T05:39:45.741Z,44.52
2022-08-03T05:42:16.854Z,45.16
2022-08-03T05:44:45.003Z,44.74
2022-08-03T05:47:14.463Z,44.98
2022-08-03T05:49:42.741Z,44.69
2022-08-03T05:52:14.758Z,44.67
2022-08-03T05:54:56.013Z,44.32
2022-08-03T05:57:25.654Z,44.04
2022-08-03T05:59:58.227Z,43.86
2022-08-03T06:02:28.265Z,43.74
2022-08-03T06:04:56.093Z,43.12
2022-08-03T06:07:24.170Z,43.02
2022-08-03T06:10:36.061Z,42.82
2022-08-03T06:12:41.397Z,42.63
2022-08-03T06:15:11.405Z,42.41
2022-08-03T06:17:48.264Z,41.94
2022-08-03T06:20:18.377Z,42.04
2022-08-03T06:22:50.531Z,41.55
2022-08-03T06:25:21.223Z,41.27
2022-08-03T06:27:49.477Z,41.14
2022-08-03T06:30:21.222Z,40.99
2022-08-03T06:32:52.070Z,39.96
2022-08-03T06:35:20.585Z,39.45
2022-08-03T06:37:49.887Z,39.27
2022-08-03T06:40:21.794Z,38.13
2022-08-03T06:42:52.417Z,38.24
2022-08-03T06:45:20.460Z,36.90
2022-08-03T06:48:00.945Z,35.83
2022-08-03T06:50:28.838Z,34.78
2022-08-03T06:52:56.791Z,33.77
2022-08-03T06:55:24.973Z,32.38
2022-08-03T06:57:53.387Z,32.67
2022-08-03T07:00:21.683Z,31.60
2022-08-03T07:02:54.818Z,31.51
2022-08-03T07:05:25.651Z,30.95
2022-08-03T07:07:56.821Z,31.64
2022-08-03T07:10:24.692Z,31.23
2022-08-03T07:12:56.401Z,30.88
2022-08-03T07:15:54.327Z,32.04
2022-08-03T07:18:15.271Z,31.04
2022-08-03T07:20:43.351Z,32.08
2022-08-03T07:23:11.577Z,31.95
2022-08-03T07:25:47.390Z,31.98
2022-08-03T07:28:15.627Z,31.93
2022-08-03T07:30:43.563Z,31.45
2022-08-03T07:33:11.373Z,31.88
2022-08-03T07:35:40.619Z,31.45
2022-08-03T07:38:08.505Z,31.68
2022-08-03T07:40:36.384Z,31.99
2022-08-03T07:43:05.040Z,31.68
2022-08-03T07:45:33.351Z,31.33
2022-08-03T07:48:01.648Z,29.67
2022-08-03T07:50:29.760Z,29.94
2022-08-03T07:52:59.827Z,27.10
2022-08-03T07:55:28.830Z,27.13
2022-08-03T07:58:04.980Z,25.30
2022-08-03T08:00:33.538Z,25.55
2022-08-03T08:03:01.420Z,25.59
2022-08-03T08:05:29.577Z,24.58
2022-08-03T08:07:58.857Z,24.07
2022-08-03T08:10:26.847Z,23.92
2022-08-03T08:12:55.302Z,23.33
2022-08-03T08:15:24.668Z,22.89
2022-08-03T08:17:55.610Z,21.43
2022-08-03T08:20:30.834Z,19.62
2022-08-03T08:23:37.693Z,21.66
2022-08-03T08:26:03.418Z,16.99
2022-08-03T08:28:33.789Z,18.99
2022-08-03T08:31:03.645Z,20.70
2022-08-03T08:34:03.256Z,21.01
2022-08-03T08:36:29.078Z,20.84
2022-08-03T08:39:01.533Z,17.47
2022-08-03T08:41:35.286Z,19.79
2022-08-03T08:44:07.864Z,19.73
2022-08-03T08:46:37.678Z,20.02
2022-08-03T08:49:18.139Z,17.82
2022-08-03T08:51:59.070Z,18.56
2022-08-03T08:54:33.941Z,18.21
2022-08-03T08:57:21.121Z,16.32
2022-08-03T08:59:59.202Z,18.18
2022-08-03T09:02:32.457Z,17.18
2022-08-03T09:05:07.308Z,18.29
2022-08-03T09:07:36.665Z,18.28
2022-08-03T09:10:13.042Z,15.75
2022-08-03T09:12:43.806Z,17.04
2022-08-03T09:15:20.317Z,15.34
2022-08-03T09:17:51.159Z,17.58
2022-08-03T09:20:20.510Z,16.54
2022-08-03T09:22:57.554Z,14.34
2022-08-03T09:25:31.336Z,15.49
2022-08-03T09:28:08.405Z,15.41
2022-08-03T09:30:37.415Z,16.13
2022-08-03T09:33:08.304Z,15.42
2022-08-03T09:35:58.137Z,15.31
2022-08-03T09:38:27.623Z,16.57
2022-08-03T09:41:00.781Z,15.82
2022-08-03T09:43:29.429Z,16.30
2022-08-03T09:46:04.605Z,14.85
2022-08-03T09:48:34.862Z,16.02
2022-08-03T09:51:13.398Z,16.03
2022-08-03T09:53:58.924Z,16.23
2022-08-03T09:56:41.477Z,13.98
2022-08-03T09:59:11.468Z,16.55
2022-08-03T10:01:44.191Z,15.88
2022-08-03T10:04:17.249Z,15.34
2022-08-03T10:06:46.381Z,15.41
2022-08-03T10:09:17.692Z,13.31
2022-08-03T10:11:49.692Z,15.55
2022-08-03T10:14:21.276Z,14.78
2022-08-03T10:16:50.512Z,15.71
2022-08-03T10:19:20.879Z,16.71
2022-08-03T10:21:55.011Z,16.38
2022-08-03T10:24:29.135Z,14.00
2022-08-03T10:27:04.891Z,15.49
2022-08-03T10:29:40.424Z,15.50
2022-08-03T10:32:44.004Z,14.21
2022-08-03T10:35:37.815Z,16.28
2022-08-03T10:38:47.348Z,15.38
2022-08-03T10:41:43.425Z,16.04
2022-08-03T10:45:05.758Z,15.92
2022-08-03T10:48:01.781Z,17.25
2022-08-03T10:50:47.448Z,16.35
2022-08-03T10:53:48.855Z,15.50
2022-08-03T11:00:36.197Z,15.32
2022-08-03T11:03:25.342Z,15.88
2022-08-03T11:06:37.287Z,15.42
2022-08-03T11:10:30.758Z,15.35
2022-08-03T11:13:23.334Z,16.17
2022-08-03T11:15:59.807Z,16.28
2022-08-03T11:19:04.875Z,15.57
2022-08-03T11:22:15.355Z,14.88
2022-08-03T11:25:54.249Z,16.17
2022-08-03T11:28:44.921Z,15.91
2022-08-03T11:31:57.811Z,15.77
2022-08-03T11:34:32.509Z,16.98
2022-08-03T11:38:03.311Z,14.27
2022-08-03T11:41:31.712Z,15.40
2022-08-03T11:48:07.961Z,16.31
2022-08-03T11:51:27.523Z,16.38
2022-08-03T11:54:15.585Z,15.79
2022-08-03T12:01:07.265Z,15.97
2022-08-03T12:04:17.768Z,15.29
2022-08-03T12:08:03.845Z,14.38
2022-08-03T12:11:10.973Z,15.68
2022-08-03T12:14:49.235Z,14.54
2022-08-03T12:17:15.925Z,15.62
2022-08-03T12:19:55.515Z,14.47
2022-08-03T12:23:01.443Z,15.18
2022-08-03T12:25:55.283Z,15.46
2022-08-03T12:28:56.334Z,14.93
2022-08-03T12:35:13.533Z,15.60
2022-08-03T12:37:55.843Z,16.69
2022-08-03T12:40:47.340Z,16.45
2022-08-03T12:44:18.811Z,16.53
2022-08-03T12:47:19.024Z,17.19
2022-08-03T12:57:25.228Z,16.68
2022-08-03T13:00:36.878Z,17.09
2022-08-03T13:03:49.869Z,17.64
2022-08-03T13:06:32.418Z,18.08
2022-08-03T13:09:37.246Z,18.54
2022-08-03T13:12:24.490Z,19.33
2022-08-03T13:19:33.698Z,18.23
2022-08-03T13:22:37.461Z,19.02
2022-08-03T13:25:34.448Z,19.28
2022-08-03T13:28:50.827Z,18.63
2022-08-03T13:32:02.273Z,19.23
2022-08-03T13:34:55.861Z,19.13
2022-08-03T13:37:57.939Z,19.44
2022-08-03T13:40:55.516Z,19.50
2022-08-03T13:43:30.646Z,20.60
2022-08-03T13:46:17.172Z,20.55
2022-08-03T13:49:37.388Z,20.50
2022-08-03T13:52:20.874Z,20.67
2022-08-03T13:55:41.487Z,20.59
2022-08-03T13:58:39.008Z,20.54
2022-08-03T14:01:54.466Z,21.10
2022-08-03T14:04:59.645Z,20.70
2022-08-03T14:07:41.064Z,21.33
2022-08-03T14:10:14.591Z,20.96
2022-08-03T14:12:53.369Z,21.35
2022-08-03T14:15:41.102Z,20.69
2022-08-03T14:18:28.652Z,21.11
2022-08-03T14:21:17.715Z,21.77
2022-08-03T14:23:54.650Z,21.85
2022-08-03T14:26:41.063Z,21.57
2022-08-03T14:29:12.394Z,21.51
2022-08-03T14:32:11.664Z,21.79
2022-08-03T14:34:53.439Z,21.97
2022-08-03T14:37:50.888Z,21.86
2022-08-03T14:40:44.880Z,22.29
2022-08-03T14:43:33.951Z,21.29
2022-08-03T14:46:35.360Z,21.22
2022-08-03T14:50:36.455Z,21.41
2022-08-03T14:53:38.195Z,22.25
2022-08-03T14:56:16.801Z,21.88
2022-08-03T14:58:45.117Z,22.05
2022-08-03T15:02:03.056Z,22.00
2022-08-03T15:04:34.432Z,21.96
2022-08-03T15:07:23.001Z,22.02
2022-08-03T15:10:43.787Z,21.83
2022-08-03T15:14:19.935Z,21.66
2022-08-03T15:17:10.917Z,22.20
2022-08-03T15:20:03.744Z,21.95
2022-08-03T15:22:55.441Z,21.83
2022-08-03T15:26:04.144Z,21.86
2022-08-03T15:30:07.435Z,21.76
2022-08-03T15:32:28.526Z,22.16
2022-08-03T15:35:20.608Z,22.19
2022-08-03T15:38:16.261Z,22.26
2022-08-03T15:41:06.432Z,22.15
2022-08-03T15:43:54.833Z,22.51
2022-08-03T15:46:35.086Z,22.71
2022-08-03T15:49:06.031Z,22.53
2022-08-03T15:51:34.368Z,22.49
2022-08-03T15:54:04.093Z,22.52
2022-08-03T15:56:32.000Z,22.69
2022-08-03T15:59:12.253Z,22.50
2022-08-03T16:01:41.849Z,22.36
2022-08-03T16:04:09.605Z,22.35
2022-08-03T16:06:37.335Z,22.77
2022-08-03T16:09:23.013Z,22.75
2022-08-03T16:11:55.578Z,22.54
2022-08-03T16:14:32.509Z,22.77
2022-08-03T16:17:03.999Z,23.21
2022-08-03T16:19:31.721Z,23.32
2022-08-03T16:21:59.526Z,22.85
2022-08-03T16:24:30.050Z,22.85
2022-08-03T16:26:58.144Z,23.10
2022-08-03T16:29:28.730Z,22.91
2022-08-03T16:31:56.759Z,22.77
2022-08-03T16:34:24.649Z,22.85
2022-08-03T16:36:52.686Z,22.63
2022-08-03T16:39:20.411Z,22.57
2022-08-03T16:41:53.748Z,22.90
2022-08-03T16:44:30.468Z,22.75
2022-08-03T16:46:58.225Z,22.99
2022-08-03T16:49:54.529Z,23.28
2022-08-03T16:52:13.801Z,23.09
2022-08-03T16:54:44.630Z,23.07
2022-08-03T16:57:59.582Z,22.78
2022-08-03T17:00:11.894Z,22.94
2022-08-03T17:02:48.093Z,23.00
2022-08-03T17:05:16.446Z,23.33
2022-08-03T17:07:47.012Z,23.38
2022-08-03T17:10:21.936Z,23.44
2022-08-03T17:12:56.206Z,23.29
2022-08-03T17:15:37.988Z,23.24
2022-08-03T17:18:18.581Z,23.50
2022-08-03T17:20:50.949Z,23.72
2022-08-03T17:23:34.643Z,23.46
2022-08-03T17:26:08.877Z,23.54
2022-08-03T17:28:50.618Z,22.94
2022-08-03T17:31:32.247Z,23.54
2022-08-03T17:34:11.288Z,23.62
2022-08-03T17:37:03.093Z,23.87
2022-08-03T17:39:55.851Z,23.77
2022-08-03T17:42:31.239Z,24.18
2022-08-03T17:45:03.474Z,23.82
2022-08-03T17:47:42.713Z,23.99
2022-08-03T17:50:23.449Z,24.09
2022-08-03T17:53:07.114Z,24.13
2022-08-03T17:55:55.831Z,24.45
2022-08-03T17:58:38.498Z,23.88
2022-08-03T18:02:02.673Z,24.24
2022-08-03T18:04:30.229Z,24.42
2022-08-03T18:07:00.109Z,24.17
2022-08-03T18:10:05.184Z,24.51
2022-08-03T18:12:27.740Z,24.37
2022-08-03T18:15:01.102Z,24.61
2022-08-03T18:20:41.814Z,24.63
2022-08-03T18:23:36.192Z,25.52
2022-08-03T18:26:04.742Z,25.76
2022-08-03T18:28:36.064Z,26.06
2022-08-03T18:31:07.913Z,25.92
2022-08-03T18:34:19.727Z,26.86
2022-08-03T18:36:38.701Z,26.73
2022-08-03T18:39:08.721Z,26.34
2022-08-03T18:41:46.293Z,26.52
2022-08-03T18:44:45.547Z,27.11
2022-08-03T18:47:51.606Z,27.72
2022-08-03T18:50:35.770Z,27.75
2022-08-03T18:53:19.373Z,27.36
2022-08-03T18:56:26.701Z,28.00
2022-08-03T18:59:31.544Z,28.46
2022-08-03T19:02:16.677Z,28.53
2022-08-03T19:04:48.352Z,28.19
2022-08-03T19:07:36.245Z,28.83
2022-08-03T19:10:15.830Z,28.39
2022-08-03T19:12:51.865Z,28.09
2022-08-03T19:15:37.023Z,28.60
2022-08-03T19:18:12.401Z,28.23
2022-08-03T19:20:46.751Z,28.33
2022-08-03T19:23:18.880Z,29.16
2022-08-03T19:25:47.951Z,28.84
2022-08-03T19:28:17.581Z,29.40
2022-08-03T19:30:53.721Z,29.18
2022-08-03T19:33:23.334Z,29.25
2022-08-03T19:36:19.584Z,30.09
2022-08-03T19:39:24.468Z,30.52
2022-08-03T19:42:09.188Z,30.49
2022-08-03T19:44:52.602Z,31.07
2022-08-03T19:47:29.250Z,30.66
2022-08-03T19:50:10.484Z,30.48
2022-08-03T19:52:45.372Z,30.33
2022-08-03T19:55:17.760Z,31.97
2022-08-03T19:57:57.200Z,31.33
2022-08-03T20:00:36.878Z,30.74
2022-08-03T20:03:21.776Z,31.31
2022-08-03T20:06:05.999Z,32.43
2022-08-03T20:08:48.230Z,32.07
2022-08-03T20:11:28.657Z,32.27
2022-08-03T20:14:02.323Z,31.68
2022-08-03T20:16:42.363Z,31.40
2022-08-03T20:19:32.607Z,32.09
2022-08-03T20:22:27.861Z,32.47
2022-08-03T20:25:20.690Z,33.10
2022-08-03T20:28:14.235Z,33.06
2022-08-03T20:31:11.661Z,33.31
2022-08-03T20:33:50.112Z,32.44
2022-08-03T20:36:58.486Z,33.73
2022-08-03T20:39:39.235Z,32.37
2022-08-03T20:42:41.683Z,33.01
2022-08-03T20:46:00.205Z,33.13
2022-08-03T20:48:30.202Z,33.36
2022-08-03T20:51:49.946Z,33.88
2022-08-03T20:54:30.826Z,33.83
2022-08-03T20:57:40.366Z,34.67
2022-08-03T21:00:28.030Z,34.22
2022-08-03T21:03:40.504Z,34.73
2022-08-03T21:06:36.769Z,34.29
2022-08-03T21:09:33.354Z,35.62
2022-08-03T21:13:05.597Z,25.17
2022-08-03T21:13:12.469Z,35.37
2022-08-03T21:16:43.999Z,35.58
2022-08-03T21:19:55.423Z,35.34
2022-08-03T21:22:39.371Z,34.73
2022-08-03T21:25:46.120Z,35.80
2022-08-03T21:28:14.557Z,34.07
2022-08-03T21:30:55.477Z,35.32
2022-08-03T21:33:27.890Z,35.51
2022-08-03T21:35:55.835Z,34.38
2022-08-03T21:38:30.037Z,34.99
2022-08-03T21:40:58.648Z,34.60
2022-08-03T21:43:26.625Z,35.28
2022-08-03T21:45:58.803Z,35.48
2022-08-03T21:48:29.821Z,36.41
2022-08-03T21:50:57.711Z,35.41
2022-08-03T21:53:28.130Z,36.04
2022-08-03T21:56:20.976Z,36.72
2022-08-03T21:58:52.472Z,36.37
2022-08-03T22:01:22.998Z,36.10
2022-08-03T22:03:54.308Z,36.71
2022-08-03T22:06:22.728Z,35.81
2022-08-03T22:08:55.229Z,35.87
2022-08-03T22:11:23.157Z,36.42
2022-08-03T22:13:51.745Z,36.28
2022-08-03T22:16:20.512Z,36.24
2022-08-03T22:18:48.315Z,36.41
2022-08-03T22:21:28.037Z,37.48
2022-08-03T22:24:06.543Z,37.20
2022-08-03T22:26:36.706Z,36.97
2022-08-03T22:29:08.535Z,37.77
2022-08-03T22:31:58.171Z,37.27
2022-08-03T22:34:27.369Z,37.50
2022-08-03T22:37:02.909Z,37.91
2022-08-03T22:39:31.717Z,37.18
2022-08-03T22:41:59.745Z,36.97
2022-08-03T22:44:28.426Z,37.16
2022-08-03T22:46:56.763Z,37.12
2022-08-03T22:49:25.445Z,37.25
2022-08-03T22:51:53.830Z,37.09
2022-08-03T22:54:24.381Z,37.63
2022-08-03T22:56:52.978Z,37.11
2022-08-03T22:59:41.075Z,37.13
2022-08-03T23:02:21.238Z,37.32
2022-08-03T23:04:52.344Z,37.66
2022-08-03T23:07:28.336Z,37.88
2022-08-03T23:09:58.890Z,37.87
2022-08-03T23:12:29.552Z,38.36
2022-08-03T23:15:01.566Z,38.03
2022-08-03T23:17:31.731Z,38.24
2022-08-03T23:20:03.439Z,38.19
2022-08-03T23:22:31.367Z,37.50
2022-08-03T23:25:03.678Z,37.98
2022-08-03T23:27:33.288Z,37.53
2022-08-03T23:30:02.698Z,38.00
2022-08-03T23:32:31.589Z,37.60
2022-08-03T23:35:19.126Z,38.23
2022-08-03T23:38:03.927Z,38.04
2022-08-03T23:40:38.806Z,38.21
2022-08-03T23:43:07.356Z,37.82
2022-08-03T23:45:42.553Z,38.14
2022-08-03T23:48:10.434Z,38.12
2022-08-03T23:50:46.353Z,39.56
2022-08-03T23:53:19.126Z,39.65
2022-08-03T23:56:01.744Z,39.90
2022-08-03T23:58:42.849Z,39.52
